sensor_id;sensor_type;location;lat;lon;timestamp;temperature;humidity
20610;DHT22;10463;52.378;9.688;2023-07-31T00:02:31;29.20;28.00
20610;DHT22;10463;52.378;9.688;2023-07-31T00:05:16;29.20;28.00
20610;DHT22;10463;52.378;9.688;2023-07-31T00:08:01;29.20;28.10
20610;DHT22;10463;52.378;9.688;2023-07-31T00:10:45;29.20;28.10
20610;DHT22;10463;52.378;9.688;2023-07-31T00:13:30;29.20;28.10
20610;DHT22;10463;52.378;9.688;2023-07-31T00:16:16;29.20;28.10
20610;DHT22;10463;52.378;9.688;2023-07-31T00:19:01;29.20;28.10
20610;DHT22;10463;52.378;9.688;2023-07-31T00:21:45;29.20;28.10
20610;DHT22;10463;52.378;9.688;2023-07-31T00:24:30;29.20;28.10
20610;DHT22;10463;52.378;9.688;2023-07-31T00:27:15;29.20;28.10
20610;DHT22;10463;52.378;9.688;2023-07-31T00:29:59;29.20;28.10
20610;DHT22;10463;52.378;9.688;2023-07-31T00:32:45;29.20;28.10
20610;DHT22;10463;52.378;9.688;2023-07-31T00:35:30;29.20;28.20
20610;DHT22;10463;52.378;9.688;2023-07-31T00:38:14;29.20;28.20
20610;DHT22;10463;52.378;9.688;2023-07-31T00:40:59;29.20;28.20
20610;DHT22;10463;52.378;9.688;2023-07-31T00:43:44;29.20;28.20
20610;DHT22;10463;52.378;9.688;2023-07-31T00:46:29;29.20;28.20
20610;DHT22;10463;52.378;9.688;2023-07-31T00:49:16;29.20;28.20
20610;DHT22;10463;52.378;9.688;2023-07-31T00:52:01;29.20;28.20
20610;DHT22;10463;52.378;9.688;2023-07-31T00:54:48;29.20;28.20
20610;DHT22;10463;52.378;9.688;2023-07-31T00:57:34;29.20;28.20
20610;DHT22;10463;52.378;9.688;2023-07-31T01:00:21;29.20;28.20
20610;DHT22;10463;52.378;9.688;2023-07-31T01:03:06;29.20;28.20
20610;DHT22;10463;52.378;9.688;2023-07-31T01:06:08;29.20;28.30
20610;DHT22;10463;52.378;9.688;2023-07-31T01:09:01;29.20;28.30
20610;DHT22;10463;52.378;9.688;2023-07-31T01:11:52;29.20;28.30
20610;DHT22;10463;52.378;9.688;2023-07-31T01:14:37;29.20;28.30
20610;DHT22;10463;52.378;9.688;2023-07-31T01:17:22;29.20;28.30
20610;DHT22;10463;52.378;9.688;2023-07-31T01:20:12;29.20;28.80
20610;DHT22;10463;52.378;9.688;2023-07-31T01:26:39;29.10;28.30
20610;DHT22;10463;52.378;9.688;2023-07-31T01:29:34;29.10;28.30
20610;DHT22;10463;52.378;9.688;2023-07-31T01:32:22;29.10;28.30
20610;DHT22;10463;52.378;9.688;2023-07-31T01:35:09;29.10;28.30
20610;DHT22;10463;52.378;9.688;2023-07-31T01:37:54;29.10;28.30
20610;DHT22;10463;52.378;9.688;2023-07-31T01:40:42;29.10;28.30
20610;DHT22;10463;52.378;9.688;2023-07-31T01:43:29;29.10;28.30
20610;DHT22;10463;52.378;9.688;2023-07-31T01:46:14;29.10;28.30
20610;DHT22;10463;52.378;9.688;2023-07-31T01:48:59;29.10;28.30
20610;DHT22;10463;52.378;9.688;2023-07-31T01:51:44;29.10;28.30
20610;DHT22;10463;52.378;9.688;2023-07-31T01:54:28;29.10;28.30
20610;DHT22;10463;52.378;9.688;2023-07-31T01:57:13;29.10;28.30
20610;DHT22;10463;52.378;9.688;2023-07-31T01:59:59;29.10;28.30
20610;DHT22;10463;52.378;9.688;2023-07-31T02:02:44;29.10;28.30
20610;DHT22;10463;52.378;9.688;2023-07-31T02:05:28;29.10;28.30
20610;DHT22;10463;52.378;9.688;2023-07-31T02:08:13;29.10;28.30
20610;DHT22;10463;52.378;9.688;2023-07-31T02:10:58;29.10;28.30
20610;DHT22;10463;52.378;9.688;2023-07-31T02:13:43;29.10;28.30
20610;DHT22;10463;52.378;9.688;2023-07-31T02:16:29;29.10;28.30
20610;DHT22;10463;52.378;9.688;2023-07-31T02:19:13;29.10;28.30
20610;DHT22;10463;52.378;9.688;2023-07-31T02:21:58;29.10;28.40
20610;DHT22;10463;52.378;9.688;2023-07-31T02:24:42;29.10;28.40
20610;DHT22;10463;52.378;9.688;2023-07-31T02:27:27;29.10;28.40
20610;DHT22;10463;52.378;9.688;2023-07-31T02:30:12;29.10;28.40
20610;DHT22;10463;52.378;9.688;2023-07-31T02:32:58;29.10;28.40
20610;DHT22;10463;52.378;9.688;2023-07-31T02:35:42;29.10;28.40
20610;DHT22;10463;52.378;9.688;2023-07-31T02:38:27;29.10;28.40
20610;DHT22;10463;52.378;9.688;2023-07-31T02:41:12;29.10;28.40
20610;DHT22;10463;52.378;9.688;2023-07-31T02:43:57;29.10;28.40
20610;DHT22;10463;52.378;9.688;2023-07-31T02:46:42;29.10;28.40
20610;DHT22;10463;52.378;9.688;2023-07-31T02:49:28;29.10;28.40
20610;DHT22;10463;52.378;9.688;2023-07-31T02:52:12;29.10;28.40
20610;DHT22;10463;52.378;9.688;2023-07-31T02:54:57;29.10;28.40
20610;DHT22;10463;52.378;9.688;2023-07-31T02:57:42;29.10;28.40
20610;DHT22;10463;52.378;9.688;2023-07-31T03:00:27;29.10;28.40
20610;DHT22;10463;52.378;9.688;2023-07-31T03:03:12;29.10;28.40
20610;DHT22;10463;52.378;9.688;2023-07-31T03:05:58;29.10;28.40
20610;DHT22;10463;52.378;9.688;2023-07-31T03:08:43;29.10;28.40
20610;DHT22;10463;52.378;9.688;2023-07-31T03:11:27;29.10;28.40
20610;DHT22;10463;52.378;9.688;2023-07-31T03:14:12;29.10;28.50
20610;DHT22;10463;52.378;9.688;2023-07-31T03:16:57;29.10;28.50
20610;DHT22;10463;52.378;9.688;2023-07-31T03:19:41;29.10;28.50
20610;DHT22;10463;52.378;9.688;2023-07-31T03:22:27;29.10;28.50
20610;DHT22;10463;52.378;9.688;2023-07-31T03:25:12;29.10;28.50
20610;DHT22;10463;52.378;9.688;2023-07-31T03:27:57;29.10;28.50
20610;DHT22;10463;52.378;9.688;2023-07-31T03:30:41;29.10;28.50
20610;DHT22;10463;52.378;9.688;2023-07-31T03:33:26;29.10;28.50
20610;DHT22;10463;52.378;9.688;2023-07-31T03:36:11;29.10;28.50
20610;DHT22;10463;52.378;9.688;2023-07-31T03:38:57;29.10;28.50
20610;DHT22;10463;52.378;9.688;2023-07-31T03:41:41;29.10;28.50
20610;DHT22;10463;52.378;9.688;2023-07-31T03:44:26;29.10;28.50
20610;DHT22;10463;52.378;9.688;2023-07-31T03:47:10;29.00;29.00
20610;DHT22;10463;52.378;9.688;2023-07-31T03:49:56;29.00;28.50
20610;DHT22;10463;52.378;9.688;2023-07-31T03:52:41;29.00;28.50
20610;DHT22;10463;52.378;9.688;2023-07-31T03:55:27;29.00;28.50
20610;DHT22;10463;52.378;9.688;2023-07-31T03:58:12;29.00;28.50
20610;DHT22;10463;52.378;9.688;2023-07-31T04:00:57;29.00;28.50
20610;DHT22;10463;52.378;9.688;2023-07-31T04:03:42;29.00;28.50
20610;DHT22;10463;52.378;9.688;2023-07-31T04:06:26;29.00;28.50
20610;DHT22;10463;52.378;9.688;2023-07-31T04:09:11;29.00;28.50
20610;DHT22;10463;52.378;9.688;2023-07-31T04:11:57;29.00;28.50
20610;DHT22;10463;52.378;9.688;2023-07-31T04:14:41;29.00;28.50
20610;DHT22;10463;52.378;9.688;2023-07-31T04:17:26;29.00;28.50
20610;DHT22;10463;52.378;9.688;2023-07-31T04:20:11;29.00;28.50
20610;DHT22;10463;52.378;9.688;2023-07-31T04:22:56;29.00;28.50
20610;DHT22;10463;52.378;9.688;2023-07-31T04:25:41;29.00;28.50
20610;DHT22;10463;52.378;9.688;2023-07-31T04:28:27;29.00;28.50
20610;DHT22;10463;52.378;9.688;2023-07-31T04:31:11;29.00;28.50
20610;DHT22;10463;52.378;9.688;2023-07-31T04:33:56;29.00;28.50
20610;DHT22;10463;52.378;9.688;2023-07-31T04:36:40;29.00;28.50
20610;DHT22;10463;52.378;9.688;2023-07-31T04:39:25;29.00;28.50
20610;DHT22;10463;52.378;9.688;2023-07-31T04:42:09;29.00;28.60
20610;DHT22;10463;52.378;9.688;2023-07-31T04:44:55;29.00;28.60
20610;DHT22;10463;52.378;9.688;2023-07-31T04:47:40;29.00;28.60
20610;DHT22;10463;52.378;9.688;2023-07-31T04:50:25;29.00;28.60
20610;DHT22;10463;52.378;9.688;2023-07-31T04:53:09;29.00;28.60
20610;DHT22;10463;52.378;9.688;2023-07-31T04:55:54;29.00;28.60
20610;DHT22;10463;52.378;9.688;2023-07-31T04:58:38;29.00;28.60
20610;DHT22;10463;52.378;9.688;2023-07-31T05:01:25;29.00;28.60
20610;DHT22;10463;52.378;9.688;2023-07-31T05:04:11;29.00;28.60
20610;DHT22;10463;52.378;9.688;2023-07-31T05:06:56;29.00;28.60
20610;DHT22;10463;52.378;9.688;2023-07-31T05:09:41;29.00;28.60
20610;DHT22;10463;52.378;9.688;2023-07-31T05:12:25;29.00;28.60
20610;DHT22;10463;52.378;9.688;2023-07-31T05:15:10;29.00;28.60
20610;DHT22;10463;52.378;9.688;2023-07-31T05:17:56;29.00;28.60
20610;DHT22;10463;52.378;9.688;2023-07-31T05:20:41;29.00;28.60
20610;DHT22;10463;52.378;9.688;2023-07-31T05:23:25;29.00;28.70
20610;DHT22;10463;52.378;9.688;2023-07-31T05:26:10;29.00;28.60
20610;DHT22;10463;52.378;9.688;2023-07-31T05:28:55;29.00;28.70
20610;DHT22;10463;52.378;9.688;2023-07-31T05:31:39;29.00;28.70
20610;DHT22;10463;52.378;9.688;2023-07-31T05:34:25;29.00;28.70
20610;DHT22;10463;52.378;9.688;2023-07-31T05:37:10;29.00;28.70
20610;DHT22;10463;52.378;9.688;2023-07-31T05:39:56;29.00;28.70
20610;DHT22;10463;52.378;9.688;2023-07-31T05:42:41;29.00;28.70
20610;DHT22;10463;52.378;9.688;2023-07-31T05:45:25;29.00;28.70
20610;DHT22;10463;52.378;9.688;2023-07-31T05:48:10;29.00;28.70
20610;DHT22;10463;52.378;9.688;2023-07-31T05:50:56;29.00;28.70
20610;DHT22;10463;52.378;9.688;2023-07-31T05:53:41;29.00;29.20
20610;DHT22;10463;52.378;9.688;2023-07-31T05:56:26;29.00;28.70
20610;DHT22;10463;52.378;9.688;2023-07-31T05:59:12;29.00;28.70
20610;DHT22;10463;52.378;9.688;2023-07-31T06:01:58;28.90;28.70
20610;DHT22;10463;52.378;9.688;2023-07-31T06:04:42;28.90;28.70
20610;DHT22;10463;52.378;9.688;2023-07-31T06:07:28;29.00;28.70
20610;DHT22;10463;52.378;9.688;2023-07-31T06:10:13;28.90;28.70
20610;DHT22;10463;52.378;9.688;2023-07-31T06:12:57;28.90;28.70
20610;DHT22;10463;52.378;9.688;2023-07-31T06:15:42;28.90;28.70
20610;DHT22;10463;52.378;9.688;2023-07-31T06:18:27;28.90;28.70
20610;DHT22;10463;52.378;9.688;2023-07-31T06:21:11;28.90;28.70
20610;DHT22;10463;52.378;9.688;2023-07-31T06:23:58;28.90;28.70
20610;DHT22;10463;52.378;9.688;2023-07-31T06:26:42;28.90;28.70
20610;DHT22;10463;52.378;9.688;2023-07-31T06:29:27;28.90;28.70
20610;DHT22;10463;52.378;9.688;2023-07-31T06:32:12;28.90;28.70
20610;DHT22;10463;52.378;9.688;2023-07-31T06:34:57;28.90;28.70
20610;DHT22;10463;52.378;9.688;2023-07-31T06:37:42;28.90;28.70
20610;DHT22;10463;52.378;9.688;2023-07-31T06:40:30;28.90;28.80
20610;DHT22;10463;52.378;9.688;2023-07-31T06:43:15;28.90;28.80
20610;DHT22;10463;52.378;9.688;2023-07-31T06:46:04;28.90;28.80
20610;DHT22;10463;52.378;9.688;2023-07-31T06:48:50;28.90;28.80
20610;DHT22;10463;52.378;9.688;2023-07-31T06:51:34;28.90;28.80
20610;DHT22;10463;52.378;9.688;2023-07-31T06:54:20;28.90;28.80
20610;DHT22;10463;52.378;9.688;2023-07-31T06:57:06;28.90;28.80
20610;DHT22;10463;52.378;9.688;2023-07-31T06:59:52;28.90;28.80
20610;DHT22;10463;52.378;9.688;2023-07-31T07:02:37;28.90;28.80
20610;DHT22;10463;52.378;9.688;2023-07-31T07:05:21;28.90;28.80
20610;DHT22;10463;52.378;9.688;2023-07-31T07:08:06;28.90;28.90
20610;DHT22;10463;52.378;9.688;2023-07-31T07:10:51;28.90;28.90
20610;DHT22;10463;52.378;9.688;2023-07-31T07:13:37;28.90;28.90
20610;DHT22;10463;52.378;9.688;2023-07-31T07:16:22;28.90;28.90
20610;DHT22;10463;52.378;9.688;2023-07-31T07:19:07;28.90;28.90
20610;DHT22;10463;52.378;9.688;2023-07-31T07:21:51;28.90;28.90
20610;DHT22;10463;52.378;9.688;2023-07-31T07:24:35;28.90;28.90
20610;DHT22;10463;52.378;9.688;2023-07-31T07:27:20;28.90;28.90
20610;DHT22;10463;52.378;9.688;2023-07-31T07:30:07;28.90;28.90
20610;DHT22;10463;52.378;9.688;2023-07-31T07:32:52;28.90;28.90
20610;DHT22;10463;52.378;9.688;2023-07-31T07:35:37;28.90;28.90
20610;DHT22;10463;52.378;9.688;2023-07-31T07:38:21;28.90;28.90
20610;DHT22;10463;52.378;9.688;2023-07-31T07:41:06;28.90;28.90
20610;DHT22;10463;52.378;9.688;2023-07-31T07:43:50;28.90;29.00
20610;DHT22;10463;52.378;9.688;2023-07-31T07:46:37;28.90;29.00
20610;DHT22;10463;52.378;9.688;2023-07-31T07:49:22;28.90;29.00
20610;DHT22;10463;52.378;9.688;2023-07-31T07:52:07;28.90;29.50
20610;DHT22;10463;52.378;9.688;2023-07-31T07:54:52;28.90;29.00
20610;DHT22;10463;52.378;9.688;2023-07-31T07:57:37;28.90;29.00
20610;DHT22;10463;52.378;9.688;2023-07-31T08:00:21;28.90;29.00
20610;DHT22;10463;52.378;9.688;2023-07-31T08:03:07;28.90;29.10
20610;DHT22;10463;52.378;9.688;2023-07-31T08:05:52;28.90;29.10
20610;DHT22;10463;52.378;9.688;2023-07-31T08:08:37;28.90;29.10
20610;DHT22;10463;52.378;9.688;2023-07-31T08:11:22;28.90;29.10
20610;DHT22;10463;52.378;9.688;2023-07-31T08:14:08;28.90;29.10
20610;DHT22;10463;52.378;9.688;2023-07-31T08:16:52;28.90;29.10
20610;DHT22;10463;52.378;9.688;2023-07-31T08:19:38;28.90;29.20
20610;DHT22;10463;52.378;9.688;2023-07-31T08:22:23;28.90;29.20
20610;DHT22;10463;52.378;9.688;2023-07-31T08:25:08;28.90;29.20
20610;DHT22;10463;52.378;9.688;2023-07-31T08:27:53;28.90;29.20
20610;DHT22;10463;52.378;9.688;2023-07-31T08:30:38;28.90;29.20
20610;DHT22;10463;52.378;9.688;2023-07-31T08:33:23;28.90;29.20
20610;DHT22;10463;52.378;9.688;2023-07-31T08:36:09;28.90;29.20
20610;DHT22;10463;52.378;9.688;2023-07-31T08:38:54;28.90;29.20
20610;DHT22;10463;52.378;9.688;2023-07-31T08:41:39;28.90;29.30
20610;DHT22;10463;52.378;9.688;2023-07-31T08:44:24;28.90;29.20
20610;DHT22;10463;52.378;9.688;2023-07-31T08:47:09;28.90;29.20
20610;DHT22;10463;52.378;9.688;2023-07-31T08:49:55;28.90;29.20
20610;DHT22;10463;52.378;9.688;2023-07-31T08:52:41;28.90;29.30
20610;DHT22;10463;52.378;9.688;2023-07-31T08:55:27;28.90;29.30
20610;DHT22;10463;52.378;9.688;2023-07-31T08:58:13;28.90;29.30
20610;DHT22;10463;52.378;9.688;2023-07-31T09:01:01;28.90;29.30
20610;DHT22;10463;52.378;9.688;2023-07-31T09:03:48;28.90;29.30
20610;DHT22;10463;52.378;9.688;2023-07-31T09:06:34;28.90;29.30
20610;DHT22;10463;52.378;9.688;2023-07-31T09:09:21;28.90;29.30
20610;DHT22;10463;52.378;9.688;2023-07-31T09:12:07;28.90;29.30
20610;DHT22;10463;52.378;9.688;2023-07-31T09:14:52;28.90;29.30
20610;DHT22;10463;52.378;9.688;2023-07-31T09:17:37;28.90;29.30
20610;DHT22;10463;52.378;9.688;2023-07-31T09:20:22;28.90;29.40
20610;DHT22;10463;52.378;9.688;2023-07-31T09:23:08;28.90;29.40
20610;DHT22;10463;52.378;9.688;2023-07-31T09:25:54;28.90;29.40
20610;DHT22;10463;52.378;9.688;2023-07-31T09:28:39;28.90;29.40
20610;DHT22;10463;52.378;9.688;2023-07-31T09:31:33;28.90;29.40
20610;DHT22;10463;52.378;9.688;2023-07-31T09:34:18;28.90;29.40
20610;DHT22;10463;52.378;9.688;2023-07-31T09:37:05;28.90;29.40
20610;DHT22;10463;52.378;9.688;2023-07-31T09:39:49;28.90;29.40
20610;DHT22;10463;52.378;9.688;2023-07-31T09:42:40;28.90;29.40
20610;DHT22;10463;52.378;9.688;2023-07-31T09:45:25;28.90;29.40
20610;DHT22;10463;52.378;9.688;2023-07-31T09:48:13;28.90;29.40
20610;DHT22;10463;52.378;9.688;2023-07-31T09:51:04;28.90;29.50
20610;DHT22;10463;52.378;9.688;2023-07-31T09:53:50;28.90;29.50
20610;DHT22;10463;52.378;9.688;2023-07-31T09:56:36;28.90;29.50
20610;DHT22;10463;52.378;9.688;2023-07-31T09:59:22;28.90;29.50
20610;DHT22;10463;52.378;9.688;2023-07-31T10:02:08;28.90;29.50
20610;DHT22;10463;52.378;9.688;2023-07-31T10:04:57;28.90;29.50
20610;DHT22;10463;52.378;9.688;2023-07-31T10:07:46;28.90;29.50
20610;DHT22;10463;52.378;9.688;2023-07-31T10:10:36;28.90;29.50
20610;DHT22;10463;52.378;9.688;2023-07-31T10:13:21;28.90;29.50
20610;DHT22;10463;52.378;9.688;2023-07-31T10:16:08;28.90;29.50
20610;DHT22;10463;52.378;9.688;2023-07-31T10:18:54;28.90;29.50
20610;DHT22;10463;52.378;9.688;2023-07-31T10:21:39;28.90;29.50
20610;DHT22;10463;52.378;9.688;2023-07-31T10:24:26;28.90;30.00
20610;DHT22;10463;52.378;9.688;2023-07-31T10:27:12;28.90;29.50
20610;DHT22;10463;52.378;9.688;2023-07-31T10:29:58;28.90;29.50
20610;DHT22;10463;52.378;9.688;2023-07-31T10:32:45;28.90;29.50
20610;DHT22;10463;52.378;9.688;2023-07-31T10:35:30;28.90;29.60
20610;DHT22;10463;52.378;9.688;2023-07-31T10:38:15;28.90;29.60
20610;DHT22;10463;52.378;9.688;2023-07-31T10:41:09;28.90;29.60
20610;DHT22;10463;52.378;9.688;2023-07-31T10:43:57;28.90;29.60
20610;DHT22;10463;52.378;9.688;2023-07-31T10:46:42;28.90;29.60
20610;DHT22;10463;52.378;9.688;2023-07-31T10:49:29;28.90;29.60
20610;DHT22;10463;52.378;9.688;2023-07-31T10:52:20;28.90;29.60
20610;DHT22;10463;52.378;9.688;2023-07-31T10:55:16;28.90;29.60
20610;DHT22;10463;52.378;9.688;2023-07-31T10:58:08;28.90;29.60
20610;DHT22;10463;52.378;9.688;2023-07-31T11:00:56;28.90;29.60
20610;DHT22;10463;52.378;9.688;2023-07-31T11:03:44;28.90;29.60
20610;DHT22;10463;52.378;9.688;2023-07-31T11:06:30;28.90;29.70
20610;DHT22;10463;52.378;9.688;2023-07-31T11:09:15;28.90;29.70
20610;DHT22;10463;52.378;9.688;2023-07-31T11:11:59;28.90;29.60
20610;DHT22;10463;52.378;9.688;2023-07-31T11:14:54;28.90;29.70
20610;DHT22;10463;52.378;9.688;2023-07-31T11:17:39;28.90;29.70
20610;DHT22;10463;52.378;9.688;2023-07-31T11:20:24;28.90;29.70
20610;DHT22;10463;52.378;9.688;2023-07-31T11:23:11;28.90;29.70
20610;DHT22;10463;52.378;9.688;2023-07-31T11:25:59;28.90;29.70
20610;DHT22;10463;52.378;9.688;2023-07-31T11:28:47;28.90;29.70
20610;DHT22;10463;52.378;9.688;2023-07-31T11:31:32;28.90;29.70
20610;DHT22;10463;52.378;9.688;2023-07-31T11:34:24;28.90;29.70
20610;DHT22;10463;52.378;9.688;2023-07-31T11:37:08;28.90;29.70
20610;DHT22;10463;52.378;9.688;2023-07-31T11:40:01;28.90;29.70
20610;DHT22;10463;52.378;9.688;2023-07-31T11:42:46;28.90;29.80
20610;DHT22;10463;52.378;9.688;2023-07-31T11:45:32;28.90;29.80
20610;DHT22;10463;52.378;9.688;2023-07-31T11:48:22;28.90;29.80
20610;DHT22;10463;52.378;9.688;2023-07-31T11:51:10;29.00;29.90
20610;DHT22;10463;52.378;9.688;2023-07-31T11:53:58;28.90;29.80
20610;DHT22;10463;52.378;9.688;2023-07-31T11:56:45;28.90;29.80
20610;DHT22;10463;52.378;9.688;2023-07-31T11:59:30;28.90;29.80
20610;DHT22;10463;52.378;9.688;2023-07-31T12:02:17;28.90;29.80
20610;DHT22;10463;52.378;9.688;2023-07-31T12:05:02;28.90;29.80
20610;DHT22;10463;52.378;9.688;2023-07-31T12:07:49;29.00;29.90
20610;DHT22;10463;52.378;9.688;2023-07-31T12:10:33;29.00;29.90
20610;DHT22;10463;52.378;9.688;2023-07-31T12:13:22;29.00;29.90
20610;DHT22;10463;52.378;9.688;2023-07-31T12:16:07;29.00;30.00
20610;DHT22;10463;52.378;9.688;2023-07-31T12:18:52;29.00;29.90
20610;DHT22;10463;52.378;9.688;2023-07-31T12:21:38;29.00;30.00
20610;DHT22;10463;52.378;9.688;2023-07-31T12:24:23;29.00;30.00
20610;DHT22;10463;52.378;9.688;2023-07-31T12:27:12;29.00;30.00
20610;DHT22;10463;52.378;9.688;2023-07-31T12:29:58;29.00;30.00
20610;DHT22;10463;52.378;9.688;2023-07-31T12:32:43;29.00;30.00
20610;DHT22;10463;52.378;9.688;2023-07-31T12:35:39;29.00;30.00
20610;DHT22;10463;52.378;9.688;2023-07-31T12:38:25;29.00;30.00
20610;DHT22;10463;52.378;9.688;2023-07-31T12:41:10;29.00;30.00
20610;DHT22;10463;52.378;9.688;2023-07-31T12:43:55;29.00;30.00
20610;DHT22;10463;52.378;9.688;2023-07-31T12:46:41;29.00;30.00
20610;DHT22;10463;52.378;9.688;2023-07-31T12:49:26;29.00;30.00
20610;DHT22;10463;52.378;9.688;2023-07-31T12:52:10;29.00;30.00
20610;DHT22;10463;52.378;9.688;2023-07-31T12:54:55;29.00;30.00
20610;DHT22;10463;52.378;9.688;2023-07-31T12:57:40;29.00;30.00
20610;DHT22;10463;52.378;9.688;2023-07-31T13:00:28;29.00;30.00
20610;DHT22;10463;52.378;9.688;2023-07-31T13:03:14;29.00;30.00
20610;DHT22;10463;52.378;9.688;2023-07-31T13:05:59;29.00;30.10
20610;DHT22;10463;52.378;9.688;2023-07-31T13:08:43;29.00;30.10
20610;DHT22;10463;52.378;9.688;2023-07-31T13:11:28;29.00;30.10
20610;DHT22;10463;52.378;9.688;2023-07-31T13:14:12;29.00;30.10
20610;DHT22;10463;52.378;9.688;2023-07-31T13:16:57;29.00;30.80
20610;DHT22;10463;52.378;9.688;2023-07-31T13:19:43;29.00;30.10
20610;DHT22;10463;52.378;9.688;2023-07-31T13:22:28;29.00;30.20
20610;DHT22;10463;52.378;9.688;2023-07-31T13:25:12;29.00;30.20
20610;DHT22;10463;52.378;9.688;2023-07-31T13:27:57;29.00;30.20
20610;DHT22;10463;52.378;9.688;2023-07-31T13:30:42;29.00;30.20
20610;DHT22;10463;52.378;9.688;2023-07-31T13:33:27;29.00;30.20
20610;DHT22;10463;52.378;9.688;2023-07-31T13:36:13;29.00;30.20
20610;DHT22;10463;52.378;9.688;2023-07-31T13:38:58;29.00;30.20
20610;DHT22;10463;52.378;9.688;2023-07-31T13:41:43;29.00;30.20
20610;DHT22;10463;52.378;9.688;2023-07-31T13:44:27;29.00;30.20
20610;DHT22;10463;52.378;9.688;2023-07-31T13:47:13;29.10;30.30
20610;DHT22;10463;52.378;9.688;2023-07-31T13:49:57;29.00;30.30
20610;DHT22;10463;52.378;9.688;2023-07-31T13:52:43;29.00;30.30
20610;DHT22;10463;52.378;9.688;2023-07-31T13:55:28;29.10;30.40
20610;DHT22;10463;52.378;9.688;2023-07-31T13:58:12;29.10;30.40
20610;DHT22;10463;52.378;9.688;2023-07-31T14:00:57;29.10;31.10
20610;DHT22;10463;52.378;9.688;2023-07-31T14:03:41;29.10;30.40
20610;DHT22;10463;52.378;9.688;2023-07-31T14:06:26;29.10;30.40
20610;DHT22;10463;52.378;9.688;2023-07-31T14:09:12;29.10;30.40
20610;DHT22;10463;52.378;9.688;2023-07-31T14:11:58;29.10;30.40
20610;DHT22;10463;52.378;9.688;2023-07-31T14:14:43;29.10;30.40
20610;DHT22;10463;52.378;9.688;2023-07-31T14:17:28;29.10;30.40
20610;DHT22;10463;52.378;9.688;2023-07-31T14:20:12;29.00;30.30
20610;DHT22;10463;52.378;9.688;2023-07-31T14:22:57;29.10;30.40
20610;DHT22;10463;52.378;9.688;2023-07-31T14:25:44;29.10;30.40
20610;DHT22;10463;52.378;9.688;2023-07-31T14:28:29;29.10;30.40
20610;DHT22;10463;52.378;9.688;2023-07-31T14:31:14;29.10;30.40
20610;DHT22;10463;52.378;9.688;2023-07-31T14:33:58;29.10;30.40
20610;DHT22;10463;52.378;9.688;2023-07-31T14:36:43;29.10;30.40
20610;DHT22;10463;52.378;9.688;2023-07-31T14:39:29;29.10;30.40
20610;DHT22;10463;52.378;9.688;2023-07-31T14:42:15;29.10;30.40
20610;DHT22;10463;52.378;9.688;2023-07-31T14:45:01;29.10;30.50
20610;DHT22;10463;52.378;9.688;2023-07-31T14:47:45;29.10;30.90
20610;DHT22;10463;52.378;9.688;2023-07-31T14:50:30;29.10;31.50
20610;DHT22;10463;52.378;9.688;2023-07-31T14:53:14;29.10;31.70
20610;DHT22;10463;52.378;9.688;2023-07-31T14:55:59;29.10;31.70
20610;DHT22;10463;52.378;9.688;2023-07-31T14:58:45;29.10;31.60
20610;DHT22;10463;52.378;9.688;2023-07-31T15:01:30;29.10;31.70
20610;DHT22;10463;52.378;9.688;2023-07-31T15:04:15;29.10;31.70
20610;DHT22;10463;52.378;9.688;2023-07-31T15:06:59;29.00;31.70
20610;DHT22;10463;52.378;9.688;2023-07-31T15:09:44;28.90;31.80
20610;DHT22;10463;52.378;9.688;2023-07-31T15:12:29;28.90;32.00
20610;DHT22;10463;52.378;9.688;2023-07-31T15:15:16;28.90;32.00
20610;DHT22;10463;52.378;9.688;2023-07-31T15:18:01;28.90;32.20
20610;DHT22;10463;52.378;9.688;2023-07-31T15:20:46;28.80;32.20
20610;DHT22;10463;52.378;9.688;2023-07-31T15:23:30;28.80;32.30
20610;DHT22;10463;52.378;9.688;2023-07-31T15:26:15;28.80;32.30
20610;DHT22;10463;52.378;9.688;2023-07-31T15:29:03;28.80;32.50
20610;DHT22;10463;52.378;9.688;2023-07-31T15:31:51;28.70;32.60
20610;DHT22;10463;52.378;9.688;2023-07-31T15:34:36;28.70;32.60
20610;DHT22;10463;52.378;9.688;2023-07-31T15:37:21;28.70;32.60
20610;DHT22;10463;52.378;9.688;2023-07-31T15:40:08;28.60;32.50
20610;DHT22;10463;52.378;9.688;2023-07-31T15:42:53;28.60;32.50
20610;DHT22;10463;52.378;9.688;2023-07-31T15:45:37;28.50;32.40
20610;DHT22;10463;52.378;9.688;2023-07-31T15:48:23;28.50;32.60
20610;DHT22;10463;52.378;9.688;2023-07-31T15:51:08;28.40;32.80
20610;DHT22;10463;52.378;9.688;2023-07-31T15:53:53;28.40;33.00
20610;DHT22;10463;52.378;9.688;2023-07-31T15:56:37;28.40;33.00
20610;DHT22;10463;52.378;9.688;2023-07-31T15:59:23;28.40;33.10
20610;DHT22;10463;52.378;9.688;2023-07-31T16:02:09;28.30;33.50
20610;DHT22;10463;52.378;9.688;2023-07-31T16:04:58;28.30;33.60
20610;DHT22;10463;52.378;9.688;2023-07-31T16:07:43;28.20;33.50
20610;DHT22;10463;52.378;9.688;2023-07-31T16:10:28;28.30;33.60
20610;DHT22;10463;52.378;9.688;2023-07-31T16:13:12;28.20;33.60
20610;DHT22;10463;52.378;9.688;2023-07-31T16:15:57;28.20;33.60
20610;DHT22;10463;52.378;9.688;2023-07-31T16:18:41;28.20;33.60
20610;DHT22;10463;52.378;9.688;2023-07-31T16:21:28;28.10;33.40
20610;DHT22;10463;52.378;9.688;2023-07-31T16:24:13;28.10;33.50
20610;DHT22;10463;52.378;9.688;2023-07-31T16:26:57;28.10;33.40
20610;DHT22;10463;52.378;9.688;2023-07-31T16:29:42;28.10;33.30
20610;DHT22;10463;52.378;9.688;2023-07-31T16:32:26;28.10;33.30
20610;DHT22;10463;52.378;9.688;2023-07-31T16:35:11;28.10;33.20
20610;DHT22;10463;52.378;9.688;2023-07-31T16:37:57;28.10;33.20
20610;DHT22;10463;52.378;9.688;2023-07-31T16:40:42;28.10;33.20
20610;DHT22;10463;52.378;9.688;2023-07-31T16:43:27;28.10;33.20
20610;DHT22;10463;52.378;9.688;2023-07-31T16:46:13;28.10;33.20
20610;DHT22;10463;52.378;9.688;2023-07-31T16:48:58;28.10;33.20
20610;DHT22;10463;52.378;9.688;2023-07-31T16:51:42;28.10;33.10
20610;DHT22;10463;52.378;9.688;2023-07-31T16:54:29;28.10;33.10
20610;DHT22;10463;52.378;9.688;2023-07-31T16:57:14;28.10;33.10
20610;DHT22;10463;52.378;9.688;2023-07-31T16:59:59;28.10;33.00
20610;DHT22;10463;52.378;9.688;2023-07-31T17:02:43;28.10;33.60
20610;DHT22;10463;52.378;9.688;2023-07-31T17:05:28;28.10;33.60
20610;DHT22;10463;52.378;9.688;2023-07-31T17:08:13;28.10;33.00
20610;DHT22;10463;52.378;9.688;2023-07-31T17:11:00;28.10;32.90
20610;DHT22;10463;52.378;9.688;2023-07-31T17:13:45;28.10;32.90
20610;DHT22;10463;52.378;9.688;2023-07-31T17:16:30;28.10;32.90
20610;DHT22;10463;52.378;9.688;2023-07-31T17:19:18;28.10;32.80
20610;DHT22;10463;52.378;9.688;2023-07-31T17:22:03;28.10;32.80
20610;DHT22;10463;52.378;9.688;2023-07-31T17:24:48;28.20;32.90
20610;DHT22;10463;52.378;9.688;2023-07-31T17:27:34;28.20;32.90
20610;DHT22;10463;52.378;9.688;2023-07-31T17:30:19;28.10;32.80